Time;durP1;ratioP1;P1;durP2;ratioP2;P2;SDS_P1;SDS_P2;PMS_P1;PMS_P2;Temp;Humidity;BMP_temperature;BMP_pressure;BME280_temperature;BME280_humidity;BME280_pressure;Samples;Min_cycle;Max_cycle;Signal;HPM_P1;HPM_P2
2023/06/11 00:00:44;;;;;;;;;;;;;;;21.28;49.27344;101677.2;;;;-68
2023/06/11 00:05:45;;;;;;;;;;;;;;;21.15;49.03027;101675.7;;;;-67
2023/06/11 00:10:44;;;;;;;;;;;;;;;21.1;49.00195;101677.1;;;;-67
2023/06/11 00:15:44;;;;;;;;;;;;;;;21;48.97852;101679.5;;;;-68
2023/06/11 00:20:44;;;;;;;;;;;;;;;20.96;48.83887;101681.1;;;;-68
2023/06/11 00:24:44;;;;;;;0.2;0.1;;;;;;;;;;;;;-68
2023/06/11 00:25:44;;;;;;;;;;;;;;;20.87;48.69141;101677.9;;;;-69
2023/06/11 00:30:44;;;;;;;;;;;;;;;20.77;48.55371;101670.6;;;;-69
2023/06/11 00:35:44;;;;;;;;;;;;;;;20.67;48.68066;101672.5;;;;-68
2023/06/11 00:40:44;;;;;;;;;;;;;;;20.58;48.76172;101670;;;;-69
2023/06/11 00:45:45;;;;;;;;;;;;;;;20.47;48.68164;101667.2;;;;-69
2023/06/11 00:50:48;;;;;;;;;;;;;;;20.44;48.34766;101666.4;;;;-68
2023/06/11 00:54:48;;;;;;;0.2;0;;;;;;;;;;;;;-68
2023/06/11 00:55:45;;;;;;;;;;;;;;;20.4;48.55957;101664.6;;;;-69
2023/06/11 01:00:45;;;;;;;;;;;;;;;20.33;48.68848;101660.1;;;;-68
2023/06/11 01:05:47;;;;;;;;;;;;;;;20.24;48.58789;101655.8;;;;-69
2023/06/11 01:10:45;;;;;;;;;;;;;;;20.2;48.62891;101656.5;;;;-67
2023/06/11 01:15:44;;;;;;;;;;;;;;;20.11;48.85938;101653.6;;;;-70
2023/06/11 01:20:49;;;;;;;;;;;;;;;20.1;48.74414;101657.8;;;;-69
2023/06/11 01:24:57;;;;;;;0.6;0.5;;;;;;;;;;;;;-68
2023/06/11 01:25:48;;;;;;;;;;;;;;;20.02;48.89551;101651.5;;;;-70
2023/06/11 01:30:45;;;;;;;;;;;;;;;19.94;48.97754;101653.6;;;;-68
2023/06/11 01:35:44;;;;;;;;;;;;;;;19.91;49.30371;101650.9;;;;-67
2023/06/11 01:40:44;;;;;;;;;;;;;;;19.88;49.62109;101648;;;;-68
2023/06/11 01:45:44;;;;;;;;;;;;;;;19.82;49.5459;101644.7;;;;-68
2023/06/11 01:50:44;;;;;;;;;;;;;;;19.8;49.40723;101640.6;;;;-69
2023/06/11 01:54:53;;;;;;;0.2;0.1;;;;;;;;;;;;;-68
2023/06/11 01:55:44;;;;;;;;;;;;;;;19.76;49.62988;101637;;;;-67
2023/06/11 02:00:47;;;;;;;;;;;;;;;19.73;50.02539;101635.3;;;;-67
2023/06/11 02:05:45;;;;;;;;;;;;;;;19.66;50.36035;101640;;;;-68
2023/06/11 02:10:45;;;;;;;;;;;;;;;19.67;50.30469;101639.2;;;;-68
2023/06/11 02:15:44;;;;;;;;;;;;;;;19.61;50.68457;101639.1;;;;-69
2023/06/11 02:20:44;;;;;;;;;;;;;;;19.62;50.59473;101636.8;;;;-68
2023/06/11 02:24:57;;;;;;;0.3;0.1;;;;;;;;;;;;;-67
2023/06/11 02:25:44;;;;;;;;;;;;;;;19.56;50.78223;101633.8;;;;-67
2023/06/11 02:30:44;;;;;;;;;;;;;;;19.55;50.62207;101630.8;;;;-68
2023/06/11 02:35:44;;;;;;;;;;;;;;;19.53;50.75488;101628.9;;;;-69
2023/06/11 02:40:44;;;;;;;;;;;;;;;19.5;50.57031;101626.8;;;;-69
2023/06/11 02:45:44;;;;;;;;;;;;;;;19.49;50.8877;101622.5;;;;-69
2023/06/11 02:50:44;;;;;;;;;;;;;;;19.48;50.83008;101623.9;;;;-70
2023/06/11 02:54:59;;;;;;;0.3;0.2;;;;;;;;;;;;;-68
2023/06/11 02:55:44;;;;;;;;;;;;;;;19.41;50.57129;101627.2;;;;-69
2023/06/11 03:00:44;;;;;;;;;;;;;;;19.38;50.41895;101629.4;;;;-69
2023/06/11 03:05:44;;;;;;;;;;;;;;;19.36;50.86133;101628.1;;;;-68
2023/06/11 03:10:44;;;;;;;;;;;;;;;19.31;50.90137;101629.9;;;;-68
2023/06/11 03:15:44;;;;;;;;;;;;;;;19.32;50.8457;101628.2;;;;-68
2023/06/11 03:20:44;;;;;;;;;;;;;;;19.29;50.91016;101634;;;;-68
2023/06/11 03:25:01;;;;;;;0.2;0.1;;;;;;;;;;;;;-70
2023/06/11 03:25:45;;;;;;;;;;;;;;;19.23;51.30176;101631.3;;;;-68
2023/06/11 03:30:44;;;;;;;;;;;;;;;19.21;51.61914;101632;;;;-68
2023/06/11 03:35:44;;;;;;;;;;;;;;;19.22;51.30176;101633.5;;;;-68
2023/06/11 03:40:44;;;;;;;;;;;;;;;19.21;50.92285;101639;;;;-68
2023/06/11 03:45:44;;;;;;;;;;;;;;;19.19;51.20605;101639.3;;;;-68
2023/06/11 03:50:46;;;;;;;;;;;;;;;19.17;51.48926;101646.6;;;;-68
2023/06/11 03:55:04;;;;;;;0.3;0.1;;;;;;;;;;;;;-68
2023/06/11 03:55:44;;;;;;;;;;;;;;;19.19;51.52637;101650.1;;;;-69
2023/06/11 04:00:44;;;;;;;;;;;;;;;19.19;51.35352;101651.3;;;;-69
2023/06/11 04:05:45;;;;;;;;;;;;;;;19.21;51.87988;101658.2;;;;-68
2023/06/11 04:10:47;;;;;;;;;;;;;;;19.22;51.56348;101655.6;;;;-69
2023/06/11 04:15:44;;;;;;;;;;;;;;;19.26;51.75;101650.5;;;;-68
2023/06/11 04:20:44;;;;;;;;;;;;;;;19.25;51.93066;101647.3;;;;-68
2023/06/11 04:25:07;;;;;;;0.4;0.2;;;;;;;;;;;;;-69
2023/06/11 04:25:48;;;;;;;;;;;;;;;19.28;51.95605;101646;;;;-69
2023/06/11 04:30:44;;;;;;;;;;;;;;;19.27;51.5459;101645.7;;;;-67
2023/06/11 04:35:44;;;;;;;;;;;;;;;19.31;51.5957;101645.5;;;;-68
2023/06/11 04:40:45;;;;;;;;;;;;;;;19.32;51.67676;101648.6;;;;-68
2023/06/11 04:45:44;;;;;;;;;;;;;;;19.35;51.71484;101649.3;;;;-69
2023/06/11 04:50:45;;;;;;;;;;;;;;;19.38;51.8877;101647.3;;;;-67
2023/06/11 04:55:11;;;;;;;0.2;0;;;;;;;;;;;;;-68
2023/06/11 04:55:45;;;;;;;;;;;;;;;19.42;51.7793;101646;;;;-68
2023/06/11 05:00:46;;;;;;;;;;;;;;;19.47;51.66016;101649.1;;;;-68
2023/06/11 05:05:49;;;;;;;;;;;;;;;19.49;51.42285;101643.4;;;;-67
2023/06/11 05:10:44;;;;;;;;;;;;;;;19.55;51.88672;101650.7;;;;-68
2023/06/11 05:15:44;;;;;;;;;;;;;;;19.62;51.99707;101655.6;;;;-70
2023/06/11 05:20:45;;;;;;;;;;;;;;;19.87;51.55859;101657.5;;;;-67
2023/06/11 05:25:15;;;;;;;0.3;0.2;;;;;;;;;;;;;-68
2023/06/11 05:25:46;;;;;;;;;;;;;;;20.26;51.95801;101655.8;;;;-68
2023/06/11 05:30:45;;;;;;;;;;;;;;;20.94;49.77441;101651.3;;;;-69
2023/06/11 05:35:46;;;;;;;;;;;;;;;21.77;48.21582;101658.1;;;;-68
2023/06/11 05:40:44;;;;;;;;;;;;;;;22.47;46.74121;101663.3;;;;-68
2023/06/11 05:45:49;;;;;;;;;;;;;;;23.02;46.27051;101664.5;;;;-67
2023/06/11 05:50:44;;;;;;;;;;;;;;;23.54;45.49512;101669.9;;;;-68
2023/06/11 05:55:15;;;;;;;0.4;0.3;;;;;;;;;;;;;-69
2023/06/11 05:55:44;;;;;;;;;;;;;;;24.11;44.6875;101667.8;;;;-66
2023/06/11 06:00:45;;;;;;;;;;;;;;;24.62;43.84961;101664.9;;;;-68
2023/06/11 06:05:45;;;;;;;;;;;;;;;25.12;43.50586;101672.2;;;;-68
2023/06/11 06:10:46;;;;;;;;;;;;;;;25.51;42.97656;101674.9;;;;-68
2023/06/11 06:15:44;;;;;;;;;;;;;;;25.88;42.65234;101676.4;;;;-68
2023/06/11 06:20:44;;;;;;;;;;;;;;;26.28;42.26172;101680;;;;-68
2023/06/11 06:25:18;;;;;;;0.4;0.1;;;;;;;;;;;;;-68
2023/06/11 06:25:45;;;;;;;;;;;;;;;26.71;41.81348;101686.5;;;;-68
2023/06/11 06:30:44;;;;;;;;;;;;;;;26.95;41.59277;101685.1;;;;-66
2023/06/11 06:35:44;;;;;;;;;;;;;;;27.17;41.32227;101691.5;;;;-67
2023/06/11 06:40:44;;;;;;;;;;;;;;;27.4;41.16895;101685.5;;;;-67
2023/06/11 06:45:44;;;;;;;;;;;;;;;27.63;40.75977;101686.2;;;;-68
2023/06/11 06:50:44;;;;;;;;;;;;;;;27.74;40.67578;101689;;;;-68
2023/06/11 06:55:22;;;;;;;0.3;0.1;;;;;;;;;;;;;-67
2023/06/11 06:55:44;;;;;;;;;;;;;;;27.94;40.35645;101682.4;;;;-67
2023/06/11 07:00:45;;;;;;;;;;;;;;;28.25;40.0918;101682.2;;;;-67
2023/06/11 07:05:44;;;;;;;;;;;;;;;28.41;39.76855;101686.3;;;;-68
2023/06/11 07:10:45;;;;;;;;;;;;;;;28.63;39.70508;101696.4;;;;-68
2023/06/11 07:15:44;;;;;;;;;;;;;;;28.95;39.06836;101703.1;;;;-68
2023/06/11 07:20:44;;;;;;;;;;;;;;;29.22;38.95215;101708.8;;;;-68
2023/06/11 07:25:28;;;;;;;1.8;0.9;;;;;;;;;;;;;-68
2023/06/11 07:25:47;;;;;;;;;;;;;;;29.43;38.64355;101705.8;;;;-69
2023/06/11 07:30:44;;;;;;;;;;;;;;;29.67;38.44043;101707.3;;;;-67
2023/06/11 07:35:46;;;;;;;;;;;;;;;29.95;38.125;101708.7;;;;-66
2023/06/11 07:40:44;;;;;;;;;;;;;;;30.12;38.12793;101706.6;;;;-67
2023/06/11 07:45:44;;;;;;;;;;;;;;;30.23;38.16016;101707.7;;;;-67
2023/06/11 07:50:44;;;;;;;;;;;;;;;30.34;38.22754;101713.5;;;;-68
2023/06/11 07:55:32;;;;;;;0.2;0.1;;;;;;;;;;;;;-68
2023/06/11 07:55:45;;;;;;;;;;;;;;;30.4;38.2207;101715.6;;;;-70
2023/06/11 08:00:44;;;;;;;;;;;;;;;30.51;38.23047;101710.1;;;;-67
2023/06/11 08:05:44;;;;;;;;;;;;;;;30.57;38.21094;101709.4;;;;-67
2023/06/11 08:10:45;;;;;;;;;;;;;;;30.72;38.20117;101708.9;;;;-67
2023/06/11 08:15:44;;;;;;;;;;;;;;;30.86;38.17773;101710.3;;;;-68
2023/06/11 08:20:45;;;;;;;;;;;;;;;31.03;38.02832;101709.1;;;;-67
2023/06/11 08:25:37;;;;;;;0.4;0.2;;;;;;;;;;;;;-67
2023/06/11 08:25:47;;;;;;;;;;;;;;;31.19;37.79395;101710.9;;;;-69
2023/06/11 08:30:46;;;;;;;;;;;;;;;31.31;37.85156;101708;;;;-69
2023/06/11 08:35:44;;;;;;;;;;;;;;;31.53;37.57617;101697.6;;;;-70
2023/06/11 08:40:45;;;;;;;;;;;;;;;31.79;37.44434;101699.3;;;;-67
2023/06/11 08:45:45;;;;;;;;;;;;;;;32.02;37.19238;101692.5;;;;-68
2023/06/11 08:50:45;;;;;;;;;;;;;;;32.28;37.00195;101689.1;;;;-69
2023/06/11 08:55:44;;;;;;;0.8;0.3;;;;;;;;;;;;;-69
2023/06/11 08:55:54;;;;;;;;;;;;;;;32.5;36.65527;101690.6;;;;-69
2023/06/11 09:00:44;;;;;;;;;;;;;;;32.71;36.56543;101689.3;;;;-68
2023/06/11 09:05:45;;;;;;;;;;;;;;;32.97;36.29199;101680.4;;;;-68
2023/06/11 09:10:54;;;;;;;;;;;;;;;33.26;36.03125;101686;;;;-68
2023/06/11 09:15:49;;;;;;;;;;;;;;;33.48;35.75391;101681.5;;;;-68
2023/06/11 09:20:46;;;;;;;;;;;;;;;33.61;35.50391;101680.8;;;;-67
2023/06/11 09:25:44;;;;;;;;;;;;;;;33.79;35.09277;101685.6;;;;-68
2023/06/11 09:25:54;;;;;;;0.4;0.1;;;;;;;;;;;;;-68
2023/06/11 09:30:45;;;;;;;;;;;;;;;33.95;34.85742;101684.9;;;;-67
2023/06/11 09:35:50;;;;;;;;;;;;;;;34.12;34.76367;101685.7;;;;-68
2023/06/11 09:40:48;;;;;;;;;;;;;;;34.28;34.38574;101683;;;;-70
2023/06/11 09:45:44;;;;;;;;;;;;;;;34.41;34.11133;101687.6;;;;-66
2023/06/11 09:50:45;;;;;;;;;;;;;;;34.53;34.20215;101688.3;;;;-68
2023/06/11 09:55:44;;;;;;;;;;;;;;;34.68;34.04785;101693.3;;;;-66
2023/06/11 09:56:04;;;;;;;0.5;0.2;;;;;;;;;;;;;-66
2023/06/11 10:00:44;;;;;;;;;;;;;;;34.79;33.60547;101687.1;;;;-67
2023/06/11 10:05:44;;;;;;;;;;;;;;;34.99;33.76367;101687.6;;;;-67
2023/06/11 10:10:46;;;;;;;;;;;;;;;35.17;33.43262;101688.9;;;;-67
2023/06/11 10:15:44;;;;;;;;;;;;;;;35.32;33.27734;101692.9;;;;-66
2023/06/11 10:20:54;;;;;;;;;;;;;;;35.44;32.90723;101699.5;;;;-66
2023/06/11 10:25:45;;;;;;;;;;;;;;;35.48;33.02734;101695.8;;;;-67
2023/06/11 10:26:00;;;;;;;0.3;0.1;;;;;;;;;;;;;-66
2023/06/11 10:30:54;;;;;;;;;;;;;;;35.46;32.97949;101692;;;;-67
2023/06/11 10:35:48;;;;;;;;;;;;;;;35.53;32.93555;101690.3;;;;-67
2023/06/11 10:40:45;;;;;;;;;;;;;;;35.61;33.44141;101693.4;;;;-67
2023/06/11 10:45:45;;;;;;;;;;;;;;;35.72;33.62695;101693.3;;;;-67
2023/06/11 10:50:44;;;;;;;;;;;;;;;35.91;32.92871;101691;;;;-68
2023/06/11 10:55:47;;;;;;;;;;;;;;;36.13;33.38379;101687.7;;;;-65
2023/06/11 10:56:07;;;;;;;0.3;0.1;;;;;;;;;;;;;-67
2023/06/11 11:00:44;;;;;;;;;;;;;;;36.35;32.66211;101680.5;;;;-66
2023/06/11 11:05:45;;;;;;;;;;;;;;;36.58;33;101671.1;;;;-66
2023/06/11 11:10:44;;;;;;;;;;;;;;;36.74;33.35645;101676.6;;;;-66
2023/06/11 11:15:48;;;;;;;;;;;;;;;36.94;32.89453;101678.1;;;;-71
2023/06/11 11:20:46;;;;;;;;;;;;;;;37.02;32.37695;101676;;;;-69
2023/06/11 11:25:44;;;;;;;;;;;;;;;37.22;32.03223;101674.6;;;;-69
2023/06/11 11:26:14;;;;;;;0.2;0;;;;;;;;;;;;;-69
2023/06/11 11:30:44;;;;;;;;;;;;;;;37.36;32.8291;101668.9;;;;-71
2023/06/11 11:35:56;;;;;;;;;;;;;;;37.42;32.48828;101666.6;;;;-70
2023/06/11 11:40:49;;;;;;;;;;;;;;;37.53;32.31738;101660.6;;;;-70
2023/06/11 11:45:50;;;;;;;;;;;;;;;37.6;31.80859;101658.2;;;;-72
2023/06/11 11:50:44;;;;;;;;;;;;;;;37.72;32.08008;101648.4;;;;-70
2023/06/11 11:55:45;;;;;;;;;;;;;;;37.73;32.16406;101641;;;;-66
2023/06/11 11:56:20;;;;;;;0.2;0.1;;;;;;;;;;;;;-66
2023/06/11 12:00:52;;;;;;;;;;;;;;;37.72;31.39941;101640.9;;;;-67
2023/06/11 12:05:44;;;;;;;;;;;;;;;37.85;31.39648;101635.7;;;;-67
2023/06/11 12:10:45;;;;;;;;;;;;;;;37.99;31.71582;101631.7;;;;-67
2023/06/11 12:15:44;;;;;;;;;;;;;;;38.01;32.0166;101628.3;;;;-68
2023/06/11 12:20:44;;;;;;;;;;;;;;;38.21;31.82715;101633.4;;;;-67
2023/06/11 12:25:45;;;;;;;;;;;;;;;38.33;30.4375;101634.5;;;;-67
2023/06/11 12:26:27;;;;;;;0.3;0.1;;;;;;;;;;;;;-66
2023/06/11 12:30:45;;;;;;;;;;;;;;;38.31;31.36816;101630.5;;;;-66
2023/06/11 12:35:44;;;;;;;;;;;;;;;38.46;30.61328;101627.5;;;;-67
2023/06/11 12:40:44;;;;;;;;;;;;;;;38.47;30.94922;101629.1;;;;-67
2023/06/11 12:45:45;;;;;;;;;;;;;;;38.57;31.31445;101630.2;;;;-66
2023/06/11 12:50:44;;;;;;;;;;;;;;;38.67;31.12988;101626.7;;;;-67
2023/06/11 12:55:44;;;;;;;;;;;;;;;38.64;30.3623;101620.7;;;;-66
2023/06/11 12:56:34;;;;;;;0.5;0.2;;;;;;;;;;;;;-70
2023/06/11 13:00:44;;;;;;;;;;;;;;;38.72;30.49902;101618.9;;;;-67
2023/06/11 13:05:44;;;;;;;;;;;;;;;38.8;30.16992;101612.9;;;;-66
2023/06/11 13:10:44;;;;;;;;;;;;;;;38.8;29.90625;101613.7;;;;-68
2023/06/11 13:15:45;;;;;;;;;;;;;;;38.8;29.69141;101607.8;;;;-67
2023/06/11 13:20:44;;;;;;;;;;;;;;;38.94;29.90332;101603;;;;-68
2023/06/11 13:25:44;;;;;;;;;;;;;;;38.97;30.32422;101601.2;;;;-67
2023/06/11 13:26:42;;;;;;;0.4;0.1;;;;;;;;;;;;;-67
2023/06/11 13:30:44;;;;;;;;;;;;;;;39.04;29.87305;101600.8;;;;-67
2023/06/11 13:35:44;;;;;;;;;;;;;;;39.11;30.6084;101598.9;;;;-67
2023/06/11 13:40:44;;;;;;;;;;;;;;;39.2;29.99219;101603.3;;;;-67
2023/06/11 13:45:45;;;;;;;;;;;;;;;39.21;28.83105;101605.1;;;;-68
2023/06/11 13:50:46;;;;;;;;;;;;;;;39.18;29.63184;101596.9;;;;-66
2023/06/11 13:55:44;;;;;;;;;;;;;;;39.22;29.13086;101593.7;;;;-66
2023/06/11 13:56:49;;;;;;;0.2;0.1;;;;;;;;;;;;;-66
2023/06/11 14:00:44;;;;;;;;;;;;;;;39.14;29.59277;101592.2;;;;-67
2023/06/11 14:05:44;;;;;;;;;;;;;;;39.19;29.33301;101589.5;;;;-67
2023/06/11 14:10:44;;;;;;;;;;;;;;;39.17;29.47461;101586.7;;;;-65
2023/06/11 14:15:44;;;;;;;;;;;;;;;39.14;29.37695;101582.4;;;;-67
2023/06/11 14:20:44;;;;;;;;;;;;;;;39.29;29.09961;101581.5;;;;-66
2023/06/11 14:25:44;;;;;;;;;;;;;;;39.3;28.1416;101582;;;;-66
2023/06/11 14:26:57;;;;;;;0.5;0.3;;;;;;;;;;;;;-66
2023/06/11 14:30:44;;;;;;;;;;;;;;;39.24;28.47266;101577.9;;;;-67
2023/06/11 14:35:45;;;;;;;;;;;;;;;39.21;28.2793;101575.3;;;;-67
2023/06/11 14:40:44;;;;;;;;;;;;;;;39.1;28.3457;101575.9;;;;-72
2023/06/11 14:45:44;;;;;;;;;;;;;;;39.08;28.93066;101565.2;;;;-67
2023/06/11 14:50:44;;;;;;;;;;;;;;;39.1;28.77637;101569.4;;;;-66
2023/06/11 14:55:44;;;;;;;;;;;;;;;39.05;28.37793;101564.6;;;;-67
2023/06/11 14:57:13;;;;;;;0.2;0;;;;;;;;;;;;;-66
2023/06/11 15:00:44;;;;;;;;;;;;;;;39.01;27.78906;101561.9;;;;-66
2023/06/11 15:05:44;;;;;;;;;;;;;;;38.88;28.37988;101559.3;;;;-67
2023/06/11 15:10:47;;;;;;;;;;;;;;;38.84;28.73535;101556.2;;;;-66
2023/06/11 15:15:44;;;;;;;;;;;;;;;38.83;28.2207;101549.2;;;;-65
2023/06/11 15:20:44;;;;;;;;;;;;;;;38.75;28.58691;101536.7;;;;-67
2023/06/11 15:25:44;;;;;;;;;;;;;;;38.71;28.41699;101530.5;;;;-66
2023/06/11 15:27:16;;;;;;;0.3;0;;;;;;;;;;;;;-66
2023/06/11 15:30:44;;;;;;;;;;;;;;;38.66;28.12695;101532.9;;;;-67
2023/06/11 15:35:44;;;;;;;;;;;;;;;38.6;28.19434;101531.2;;;;-67
2023/06/11 15:40:44;;;;;;;;;;;;;;;38.48;28.02051;101530.1;;;;-67
2023/06/11 15:45:47;;;;;;;;;;;;;;;38.37;27.52344;101531.7;;;;-66
2023/06/11 15:50:48;;;;;;;;;;;;;;;38.22;27.4668;101529.4;;;;-69
2023/06/11 15:55:44;;;;;;;;;;;;;;;38.08;27.67285;101526.9;;;;-66
2023/06/11 15:57:18;;;;;;;0.3;0.2;;;;;;;;;;;;;-66
2023/06/11 16:00:44;;;;;;;;;;;;;;;37.95;27.40234;101527.9;;;;-65
2023/06/11 16:05:44;;;;;;;;;;;;;;;37.66;28.17383;101527.9;;;;-67
2023/06/11 16:10:44;;;;;;;;;;;;;;;37.46;27.13477;101527.9;;;;-66
2023/06/11 16:15:45;;;;;;;;;;;;;;;37.21;27.89551;101523.4;;;;-65
2023/06/11 16:20:44;;;;;;;;;;;;;;;37.1;27.86426;101521.6;;;;-67
2023/06/11 16:25:45;;;;;;;;;;;;;;;36.97;27.85645;101520.9;;;;-67
2023/06/11 16:27:26;;;;;;;0.2;0.1;;;;;;;;;;;;;-66
2023/06/11 16:30:44;;;;;;;;;;;;;;;36.83;28.21777;101513.8;;;;-66
2023/06/11 16:35:44;;;;;;;;;;;;;;;36.76;28.4043;101515.4;;;;-67
2023/06/11 16:40:44;;;;;;;;;;;;;;;36.66;28.61328;101515.9;;;;-67
2023/06/11 16:45:44;;;;;;;;;;;;;;;36.55;28.37891;101509.9;;;;-66
2023/06/11 16:50:44;;;;;;;;;;;;;;;36.33;28.79492;101512.1;;;;-67
2023/06/11 16:55:44;;;;;;;;;;;;;;;36.2;29.07227;101510.1;;;;-66
2023/06/11 16:57:33;;;;;;;0.2;0;;;;;;;;;;;;;-66
2023/06/11 17:00:45;;;;;;;;;;;;;;;36.12;28.7334;101510.4;;;;-67
2023/06/11 17:05:44;;;;;;;;;;;;;;;35.92;28.69727;101512.6;;;;-67
2023/06/11 17:10:44;;;;;;;;;;;;;;;35.69;29.36035;101510.2;;;;-66
2023/06/11 17:15:44;;;;;;;;;;;;;;;35.53;29.46973;101511.1;;;;-66
2023/06/11 17:20:44;;;;;;;;;;;;;;;35.41;29.39063;101508.4;;;;-66
2023/06/11 17:25:44;;;;;;;;;;;;;;;35.24;29.45117;101505.6;;;;-66
2023/06/11 17:27:40;;;;;;;0.2;0;;;;;;;;;;;;;-67
2023/06/11 17:30:44;;;;;;;;;;;;;;;35.02;30.1123;101507;;;;-66
2023/06/11 17:35:44;;;;;;;;;;;;;;;34.88;29.9375;101504.1;;;;-67
2023/06/11 17:40:44;;;;;;;;;;;;;;;34.71;29.22656;101505;;;;-66
2023/06/11 17:45:44;;;;;;;;;;;;;;;34.5;30.03125;101507.5;;;;-66
2023/06/11 17:50:44;;;;;;;;;;;;;;;34.3;30.06543;101510.3;;;;-65
2023/06/11 17:55:44;;;;;;;;;;;;;;;34.12;30.24316;101505.9;;;;-68
2023/06/11 17:57:47;;;;;;;0.3;0.1;;;;;;;;;;;;;-65
2023/06/11 18:00:44;;;;;;;;;;;;;;;33.94;30.37402;101508.6;;;;-66
2023/06/11 18:05:44;;;;;;;;;;;;;;;33.76;30.81055;101504.3;;;;-66
2023/06/11 18:10:44;;;;;;;;;;;;;;;33.59;30.0791;101504.5;;;;-68
2023/06/11 18:15:44;;;;;;;;;;;;;;;33.44;30.03223;101507.8;;;;-67
2023/06/11 18:20:44;;;;;;;;;;;;;;;33.25;30.45703;101511.3;;;;-65
2023/06/11 18:25:44;;;;;;;;;;;;;;;33.09;30.50684;101515.9;;;;-73
2023/06/11 18:27:55;;;;;;;0.2;0.1;;;;;;;;;;;;;-73
2023/06/11 18:30:44;;;;;;;;;;;;;;;32.93;30.58984;101518;;;;-71
2023/06/11 18:35:48;;;;;;;;;;;;;;;32.75;30.73145;101517.9;;;;-70
2023/06/11 18:40:46;;;;;;;;;;;;;;;32.55;30.82422;101515.8;;;;-71
2023/06/11 18:45:44;;;;;;;;;;;;;;;32.37;30.92969;101519.7;;;;-71
2023/06/11 18:50:44;;;;;;;;;;;;;;;32.21;31.11914;101521.9;;;;-71
2023/06/11 18:55:44;;;;;;;;;;;;;;;31.98;31.46875;101518.1;;;;-71
2023/06/11 18:58:02;;;;;;;0.5;0.1;;;;;;;;;;;;;-71
2023/06/11 19:00:44;;;;;;;;;;;;;;;31.73;31.65234;101525.6;;;;-70
2023/06/11 19:05:44;;;;;;;;;;;;;;;31.49;31.87109;101529.6;;;;-67
2023/06/11 19:10:46;;;;;;;;;;;;;;;31.26;32.20703;101531.8;;;;-67
2023/06/11 19:15:44;;;;;;;;;;;;;;;31.03;32.35547;101538;;;;-67
2023/06/11 19:20:44;;;;;;;;;;;;;;;30.8;32.70313;101543;;;;-67
2023/06/11 19:25:44;;;;;;;;;;;;;;;30.55;32.94336;101547.5;;;;-66
2023/06/11 19:28:05;;;;;;;0.3;0.1;;;;;;;;;;;;;-67
2023/06/11 19:30:44;;;;;;;;;;;;;;;30.34;33.22168;101552.5;;;;-68
2023/06/11 19:35:44;;;;;;;;;;;;;;;30.08;33.37793;101558.8;;;;-67
2023/06/11 19:40:44;;;;;;;;;;;;;;;29.84;33.7832;101557.9;;;;-67
2023/06/11 19:45:44;;;;;;;;;;;;;;;29.62;34.17578;101564.3;;;;-67
2023/06/11 19:50:44;;;;;;;;;;;;;;;29.41;34.13672;101568.9;;;;-66
2023/06/11 19:55:44;;;;;;;;;;;;;;;29.2;34.26172;101570.4;;;;-66
2023/06/11 19:58:10;;;;;;;0.2;0.1;;;;;;;;;;;;;-66
2023/06/11 20:00:44;;;;;;;;;;;;;;;29.02;34.56348;101574.8;;;;-66
2023/06/11 20:05:44;;;;;;;;;;;;;;;28.81;34.60742;101578.7;;;;-68
2023/06/11 20:10:44;;;;;;;;;;;;;;;28.63;34.9668;101589;;;;-67
2023/06/11 20:15:44;;;;;;;;;;;;;;;28.44;35.05762;101594.3;;;;-67
2023/06/11 20:20:44;;;;;;;;;;;;;;;28.27;35.45215;101599.7;;;;-65
2023/06/11 20:25:44;;;;;;;;;;;;;;;28.1;35.55469;101610.4;;;;-67
2023/06/11 20:28:15;;;;;;;0.2;0;;;;;;;;;;;;;-67
2023/06/11 20:30:44;;;;;;;;;;;;;;;27.92;35.64648;101618.6;;;;-68
2023/06/11 20:35:44;;;;;;;;;;;;;;;27.76;36.04102;101624.4;;;;-68
2023/06/11 20:40:45;;;;;;;;;;;;;;;27.61;36.2041;101624.5;;;;-67
2023/06/11 20:45:44;;;;;;;;;;;;;;;27.47;36.21582;101621.8;;;;-68
2023/06/11 20:50:47;;;;;;;;;;;;;;;27.3;36.27246;101628.9;;;;-67
2023/06/11 20:55:44;;;;;;;;;;;;;;;27.17;36.60059;101631.4;;;;-68
2023/06/11 20:58:20;;;;;;;0.2;0.1;;;;;;;;;;;;;-67
2023/06/11 21:00:44;;;;;;;;;;;;;;;27.03;36.72754;101629.5;;;;-70
2023/06/11 21:05:49;;;;;;;;;;;;;;;26.9;36.8457;101629.7;;;;-67
2023/06/11 21:10:45;;;;;;;;;;;;;;;26.77;36.84668;101633.3;;;;-68
2023/06/11 21:15:44;;;;;;;;;;;;;;;26.63;36.96289;101636.6;;;;-68
2023/06/11 21:20:44;;;;;;;;;;;;;;;26.49;37.04395;101635.1;;;;-67
2023/06/11 21:25:44;;;;;;;;;;;;;;;26.4;37.31543;101638.9;;;;-69
2023/06/11 21:28:25;;;;;;;0.4;0.1;;;;;;;;;;;;;-68
2023/06/11 21:30:45;;;;;;;;;;;;;;;26.26;37.36133;101637.5;;;;-68
2023/06/11 21:35:45;;;;;;;;;;;;;;;26.17;37.51758;101644.4;;;;-68
2023/06/11 21:40:46;;;;;;;;;;;;;;;26.04;37.35645;101647.8;;;;-68
2023/06/11 21:45:44;;;;;;;;;;;;;;;25.93;37.68262;101647;;;;-68
2023/06/11 21:50:44;;;;;;;;;;;;;;;25.79;37.82227;101650.2;;;;-68
2023/06/11 21:55:44;;;;;;;;;;;;;;;25.68;37.87109;101654.3;;;;-68
2023/06/11 21:58:29;;;;;;;0.2;0.1;;;;;;;;;;;;;-68
2023/06/11 22:00:44;;;;;;;;;;;;;;;25.56;38.10449;101658.9;;;;-68
2023/06/11 22:05:44;;;;;;;;;;;;;;;25.43;38.02441;101659.3;;;;-69
2023/06/11 22:10:44;;;;;;;;;;;;;;;25.32;37.97949;101665.9;;;;-68
2023/06/11 22:15:44;;;;;;;;;;;;;;;25.25;38.03223;101667.9;;;;-68
2023/06/11 22:20:46;;;;;;;;;;;;;;;25.14;38.04492;101668.1;;;;-68
2023/06/11 22:25:44;;;;;;;;;;;;;;;25.05;38.30371;101679;;;;-69
2023/06/11 22:28:34;;;;;;;0.2;0.1;;;;;;;;;;;;;-67
2023/06/11 22:30:44;;;;;;;;;;;;;;;24.97;38.20508;101672.3;;;;-67
2023/06/11 22:35:46;;;;;;;;;;;;;;;24.87;38.33398;101672;;;;-68
2023/06/11 22:40:44;;;;;;;;;;;;;;;24.79;38.52441;101676.5;;;;-69
2023/06/11 22:45:44;;;;;;;;;;;;;;;24.68;38.56152;101674.8;;;;-68
2023/06/11 22:50:44;;;;;;;;;;;;;;;24.57;38.7832;101679.6;;;;-67
2023/06/11 22:55:44;;;;;;;;;;;;;;;24.49;38.77637;101675.1;;;;-68
2023/06/11 22:58:38;;;;;;;0.2;0;;;;;;;;;;;;;-68
2023/06/11 23:00:44;;;;;;;;;;;;;;;24.42;38.90918;101677.5;;;;-68
2023/06/11 23:05:44;;;;;;;;;;;;;;;24.3;39.03809;101671.3;;;;-69
2023/06/11 23:10:44;;;;;;;;;;;;;;;24.21;38.94824;101672.9;;;;-69
2023/06/11 23:15:44;;;;;;;;;;;;;;;24.12;39.24121;101669;;;;-67
2023/06/11 23:20:46;;;;;;;;;;;;;;;24.05;39.14355;101671;;;;-67
2023/06/11 23:25:49;;;;;;;;;;;;;;;23.98;39.28711;101670.9;;;;-68
2023/06/11 23:28:43;;;;;;;0.3;0.1;;;;;;;;;;;;;-68
2023/06/11 23:30:45;;;;;;;;;;;;;;;23.9;39.36035;101670;;;;-69
2023/06/11 23:35:44;;;;;;;;;;;;;;;23.85;39.49512;101667.5;;;;-67
2023/06/11 23:40:45;;;;;;;;;;;;;;;23.73;39.50781;101668;;;;-69
2023/06/11 23:45:44;;;;;;;;;;;;;;;23.63;39.62598;101666.4;;;;-68
2023/06/11 23:50:46;;;;;;;;;;;;;;;23.59;39.44824;101667.2;;;;-69
2023/06/11 23:55:46;;;;;;;;;;;;;;;23.48;39.66992;101670.3;;;;-67
2023/06/11 23:58:46;;;;;;;0.3;0.1;;;;;;;;;;;;;-68
